sensor_id;sensor_type;location;lat;lon;timestamp;temperature;humidity
19292;DHT22;9779;51.756;7.450;2022-11-23T00:00:22;7.80;99.90
19292;DHT22;9779;51.756;7.450;2022-11-23T00:02:52;7.80;99.90
19292;DHT22;9779;51.756;7.450;2022-11-23T00:05:18;7.70;99.90
19292;DHT22;9779;51.756;7.450;2022-11-23T00:07:44;7.70;99.90
19292;DHT22;9779;51.756;7.450;2022-11-23T00:10:09;7.80;99.90
19292;DHT22;9779;51.756;7.450;2022-11-23T00:12:35;7.70;99.90
19292;DHT22;9779;51.756;7.450;2022-11-23T00:15:00;7.70;99.90
19292;DHT22;9779;51.756;7.450;2022-11-23T00:17:26;7.70;99.90
19292;DHT22;9779;51.756;7.450;2022-11-23T00:19:51;7.70;99.90
19292;DHT22;9779;51.756;7.450;2022-11-23T00:22:17;7.80;99.90
19292;DHT22;9779;51.756;7.450;2022-11-23T00:24:42;7.80;99.90
19292;DHT22;9779;51.756;7.450;2022-11-23T00:27:08;7.80;99.90
19292;DHT22;9779;51.756;7.450;2022-11-23T00:29:33;7.80;99.90
19292;DHT22;9779;51.756;7.450;2022-11-23T00:31:59;7.80;99.90
19292;DHT22;9779;51.756;7.450;2022-11-23T00:34:24;7.80;99.90
19292;DHT22;9779;51.756;7.450;2022-11-23T00:36:50;7.80;99.90
19292;DHT22;9779;51.756;7.450;2022-11-23T00:39:16;7.80;99.90
19292;DHT22;9779;51.756;7.450;2022-11-23T00:41:41;7.80;99.90
19292;DHT22;9779;51.756;7.450;2022-11-23T00:44:07;7.80;99.90
19292;DHT22;9779;51.756;7.450;2022-11-23T00:46:32;7.80;99.90
19292;DHT22;9779;51.756;7.450;2022-11-23T00:48:58;7.80;99.90
19292;DHT22;9779;51.756;7.450;2022-11-23T00:51:33;7.80;99.90
19292;DHT22;9779;51.756;7.450;2022-11-23T00:53:59;7.80;99.90
19292;DHT22;9779;51.756;7.450;2022-11-23T00:56:26;7.80;99.90
19292;DHT22;9779;51.756;7.450;2022-11-23T00:58:53;7.80;99.90
19292;DHT22;9779;51.756;7.450;2022-11-23T01:01:21;7.90;99.90
19292;DHT22;9779;51.756;7.450;2022-11-23T01:03:53;7.90;99.90
19292;DHT22;9779;51.756;7.450;2022-11-23T01:06:29;7.90;99.90
19292;DHT22;9779;51.756;7.450;2022-11-23T01:09:22;7.90;99.90
19292;DHT22;9779;51.756;7.450;2022-11-23T01:11:51;7.90;99.90
19292;DHT22;9779;51.756;7.450;2022-11-23T01:14:18;7.90;99.90
19292;DHT22;9779;51.756;7.450;2022-11-23T01:16:44;7.90;99.90
19292;DHT22;9779;51.756;7.450;2022-11-23T01:19:18;7.90;99.90
19292;DHT22;9779;51.756;7.450;2022-11-23T01:21:44;7.90;99.90
19292;DHT22;9779;51.756;7.450;2022-11-23T01:24:15;7.90;99.90
19292;DHT22;9779;51.756;7.450;2022-11-23T01:26:41;7.90;99.90
19292;DHT22;9779;51.756;7.450;2022-11-23T01:29:07;7.90;99.90
19292;DHT22;9779;51.756;7.450;2022-11-23T01:31:32;7.90;99.90
19292;DHT22;9779;51.756;7.450;2022-11-23T01:34:00;7.90;99.90
19292;DHT22;9779;51.756;7.450;2022-11-23T01:36:31;7.90;99.90
19292;DHT22;9779;51.756;7.450;2022-11-23T01:38:59;7.90;99.90
19292;DHT22;9779;51.756;7.450;2022-11-23T01:41:28;7.90;99.90
19292;DHT22;9779;51.756;7.450;2022-11-23T01:43:54;7.90;99.90
19292;DHT22;9779;51.756;7.450;2022-11-23T01:46:20;7.90;99.90
19292;DHT22;9779;51.756;7.450;2022-11-23T01:48:53;7.80;99.90
19292;DHT22;9779;51.756;7.450;2022-11-23T01:51:24;7.90;99.90
19292;DHT22;9779;51.756;7.450;2022-11-23T01:53:53;7.80;99.90
19292;DHT22;9779;51.756;7.450;2022-11-23T01:56:27;7.90;99.90
19292;DHT22;9779;51.756;7.450;2022-11-23T01:58:55;7.90;99.90
19292;DHT22;9779;51.756;7.450;2022-11-23T02:01:21;7.80;99.90
19292;DHT22;9779;51.756;7.450;2022-11-23T02:03:48;7.90;99.90
19292;DHT22;9779;51.756;7.450;2022-11-23T02:06:16;7.80;99.90
19292;DHT22;9779;51.756;7.450;2022-11-23T02:08:43;7.80;99.90
19292;DHT22;9779;51.756;7.450;2022-11-23T02:11:10;7.80;99.90
19292;DHT22;9779;51.756;7.450;2022-11-23T02:13:36;7.80;99.90
19292;DHT22;9779;51.756;7.450;2022-11-23T02:16:02;7.80;99.90
19292;DHT22;9779;51.756;7.450;2022-11-23T02:18:30;7.80;99.90
19292;DHT22;9779;51.756;7.450;2022-11-23T02:21:00;7.80;99.90
19292;DHT22;9779;51.756;7.450;2022-11-23T02:26:33;7.80;99.90
19292;DHT22;9779;51.756;7.450;2022-11-23T02:29:06;7.80;99.90
19292;DHT22;9779;51.756;7.450;2022-11-23T02:31:33;7.80;99.90
19292;DHT22;9779;51.756;7.450;2022-11-23T02:33:58;7.80;99.90
19292;DHT22;9779;51.756;7.450;2022-11-23T02:36:41;7.80;99.90
19292;DHT22;9779;51.756;7.450;2022-11-23T02:39:16;7.80;99.90
19292;DHT22;9779;51.756;7.450;2022-11-23T02:41:51;7.80;99.90
19292;DHT22;9779;51.756;7.450;2022-11-23T02:46:54;7.80;99.90
19292;DHT22;9779;51.756;7.450;2022-11-23T02:49:20;7.80;99.90
19292;DHT22;9779;51.756;7.450;2022-11-23T02:51:46;7.80;99.90
19292;DHT22;9779;51.756;7.450;2022-11-23T02:54:11;7.80;99.90
19292;DHT22;9779;51.756;7.450;2022-11-23T02:56:37;7.80;99.90
19292;DHT22;9779;51.756;7.450;2022-11-23T02:59:02;7.80;99.90
19292;DHT22;9779;51.756;7.450;2022-11-23T03:01:28;7.80;99.90
19292;DHT22;9779;51.756;7.450;2022-11-23T03:03:53;7.80;99.90
19292;DHT22;9779;51.756;7.450;2022-11-23T03:06:19;7.80;99.90
19292;DHT22;9779;51.756;7.450;2022-11-23T03:08:44;7.80;99.90
19292;DHT22;9779;51.756;7.450;2022-11-23T03:11:10;7.80;99.90
19292;DHT22;9779;51.756;7.450;2022-11-23T03:13:36;7.80;99.90
19292;DHT22;9779;51.756;7.450;2022-11-23T03:16:01;7.80;99.90
19292;DHT22;9779;51.756;7.450;2022-11-23T03:18:27;7.80;99.90
19292;DHT22;9779;51.756;7.450;2022-11-23T03:20:52;7.80;99.90
19292;DHT22;9779;51.756;7.450;2022-11-23T03:23:18;7.80;99.90
19292;DHT22;9779;51.756;7.450;2022-11-23T03:25:44;7.80;99.90
19292;DHT22;9779;51.756;7.450;2022-11-23T03:28:09;7.80;99.90
19292;DHT22;9779;51.756;7.450;2022-11-23T03:30:35;7.80;99.90
19292;DHT22;9779;51.756;7.450;2022-11-23T03:33:00;7.80;99.90
19292;DHT22;9779;51.756;7.450;2022-11-23T03:35:26;7.80;99.90
19292;DHT22;9779;51.756;7.450;2022-11-23T03:37:51;7.80;99.90
19292;DHT22;9779;51.756;7.450;2022-11-23T03:40:17;7.80;99.90
19292;DHT22;9779;51.756;7.450;2022-11-23T03:42:42;7.80;99.90
19292;DHT22;9779;51.756;7.450;2022-11-23T03:45:08;7.80;99.90
19292;DHT22;9779;51.756;7.450;2022-11-23T03:47:34;7.80;99.90
19292;DHT22;9779;51.756;7.450;2022-11-23T03:50:00;7.80;99.90
19292;DHT22;9779;51.756;7.450;2022-11-23T03:52:26;7.90;99.90
19292;DHT22;9779;51.756;7.450;2022-11-23T03:54:51;7.80;99.90
19292;DHT22;9779;51.756;7.450;2022-11-23T03:57:17;7.90;99.90
19292;DHT22;9779;51.756;7.450;2022-11-23T03:59:42;7.90;99.90
19292;DHT22;9779;51.756;7.450;2022-11-23T04:02:08;7.90;99.90
19292;DHT22;9779;51.756;7.450;2022-11-23T04:04:34;7.90;99.90
19292;DHT22;9779;51.756;7.450;2022-11-23T04:07:00;7.90;99.90
19292;DHT22;9779;51.756;7.450;2022-11-23T04:09:25;7.90;99.90
19292;DHT22;9779;51.756;7.450;2022-11-23T04:11:51;7.90;99.90
19292;DHT22;9779;51.756;7.450;2022-11-23T04:14:16;7.90;99.90
19292;DHT22;9779;51.756;7.450;2022-11-23T04:16:42;7.90;99.90
19292;DHT22;9779;51.756;7.450;2022-11-23T04:19:08;7.90;99.90
19292;DHT22;9779;51.756;7.450;2022-11-23T04:21:33;7.90;99.90
19292;DHT22;9779;51.756;7.450;2022-11-23T04:23:59;7.90;99.90
19292;DHT22;9779;51.756;7.450;2022-11-23T04:26:24;7.90;99.90
19292;DHT22;9779;51.756;7.450;2022-11-23T04:28:50;7.90;99.90
19292;DHT22;9779;51.756;7.450;2022-11-23T04:31:16;7.90;99.90
19292;DHT22;9779;51.756;7.450;2022-11-23T04:33:41;7.90;99.90
19292;DHT22;9779;51.756;7.450;2022-11-23T04:36:07;7.90;99.90
19292;DHT22;9779;51.756;7.450;2022-11-23T04:38:33;7.90;99.90
19292;DHT22;9779;51.756;7.450;2022-11-23T04:40:58;7.90;99.90
19292;DHT22;9779;51.756;7.450;2022-11-23T04:43:24;7.90;99.90
19292;DHT22;9779;51.756;7.450;2022-11-23T04:45:49;7.90;99.90
19292;DHT22;9779;51.756;7.450;2022-11-23T04:48:15;7.90;99.90
19292;DHT22;9779;51.756;7.450;2022-11-23T04:50:40;7.80;99.90
19292;DHT22;9779;51.756;7.450;2022-11-23T04:53:06;7.90;99.90
19292;DHT22;9779;51.756;7.450;2022-11-23T04:55:32;7.90;99.90
19292;DHT22;9779;51.756;7.450;2022-11-23T04:57:58;7.80;99.90
19292;DHT22;9779;51.756;7.450;2022-11-23T05:00:25;7.90;99.90
19292;DHT22;9779;51.756;7.450;2022-11-23T05:02:50;7.90;99.90
19292;DHT22;9779;51.756;7.450;2022-11-23T05:05:16;7.90;99.90
19292;DHT22;9779;51.756;7.450;2022-11-23T05:07:42;7.80;99.90
19292;DHT22;9779;51.756;7.450;2022-11-23T05:10:08;7.80;99.90
19292;DHT22;9779;51.756;7.450;2022-11-23T05:12:34;7.80;99.90
19292;DHT22;9779;51.756;7.450;2022-11-23T05:15:00;7.80;99.90
19292;DHT22;9779;51.756;7.450;2022-11-23T05:17:26;7.80;99.90
19292;DHT22;9779;51.756;7.450;2022-11-23T05:19:52;7.80;99.90
19292;DHT22;9779;51.756;7.450;2022-11-23T05:22:17;7.80;99.90
19292;DHT22;9779;51.756;7.450;2022-11-23T05:24:43;7.80;99.90
19292;DHT22;9779;51.756;7.450;2022-11-23T05:27:11;7.80;99.90
19292;DHT22;9779;51.756;7.450;2022-11-23T05:29:37;7.80;99.90
19292;DHT22;9779;51.756;7.450;2022-11-23T05:32:03;7.80;99.90
19292;DHT22;9779;51.756;7.450;2022-11-23T05:34:29;7.80;99.90
19292;DHT22;9779;51.756;7.450;2022-11-23T05:36:54;7.80;99.90
19292;DHT22;9779;51.756;7.450;2022-11-23T05:39:20;7.80;99.90
19292;DHT22;9779;51.756;7.450;2022-11-23T05:41:45;7.80;99.90
19292;DHT22;9779;51.756;7.450;2022-11-23T05:44:11;7.80;99.90
19292;DHT22;9779;51.756;7.450;2022-11-23T05:46:36;7.80;99.90
19292;DHT22;9779;51.756;7.450;2022-11-23T05:49:02;7.80;99.90
19292;DHT22;9779;51.756;7.450;2022-11-23T05:51:27;7.80;99.90
19292;DHT22;9779;51.756;7.450;2022-11-23T05:53:53;7.80;99.90
19292;DHT22;9779;51.756;7.450;2022-11-23T05:56:19;7.80;99.90
19292;DHT22;9779;51.756;7.450;2022-11-23T05:58:44;7.80;99.90
19292;DHT22;9779;51.756;7.450;2022-11-23T06:01:10;7.80;99.90
19292;DHT22;9779;51.756;7.450;2022-11-23T06:03:35;7.80;99.90
19292;DHT22;9779;51.756;7.450;2022-11-23T06:06:01;7.80;99.90
19292;DHT22;9779;51.756;7.450;2022-11-23T06:08:26;7.80;99.90
19292;DHT22;9779;51.756;7.450;2022-11-23T06:10:52;7.80;99.90
19292;DHT22;9779;51.756;7.450;2022-11-23T06:13:17;7.80;99.90
19292;DHT22;9779;51.756;7.450;2022-11-23T06:15:43;7.80;99.90
19292;DHT22;9779;51.756;7.450;2022-11-23T06:18:09;7.80;99.90
19292;DHT22;9779;51.756;7.450;2022-11-23T06:20:35;7.80;99.90
19292;DHT22;9779;51.756;7.450;2022-11-23T06:23:00;7.80;99.90
19292;DHT22;9779;51.756;7.450;2022-11-23T06:25:26;7.80;99.90
19292;DHT22;9779;51.756;7.450;2022-11-23T06:27:53;7.80;99.90
19292;DHT22;9779;51.756;7.450;2022-11-23T06:30:19;7.80;99.90
19292;DHT22;9779;51.756;7.450;2022-11-23T06:32:45;7.80;99.90
19292;DHT22;9779;51.756;7.450;2022-11-23T06:35:11;7.80;99.90
19292;DHT22;9779;51.756;7.450;2022-11-23T06:37:36;7.80;99.90
19292;DHT22;9779;51.756;7.450;2022-11-23T06:40:02;7.80;99.90
19292;DHT22;9779;51.756;7.450;2022-11-23T06:42:27;7.80;99.90
19292;DHT22;9779;51.756;7.450;2022-11-23T06:44:53;7.80;99.90
19292;DHT22;9779;51.756;7.450;2022-11-23T06:47:18;7.80;99.90
19292;DHT22;9779;51.756;7.450;2022-11-23T06:49:44;7.80;99.90
19292;DHT22;9779;51.756;7.450;2022-11-23T06:52:11;7.80;99.90
19292;DHT22;9779;51.756;7.450;2022-11-23T06:54:38;7.80;99.90
19292;DHT22;9779;51.756;7.450;2022-11-23T06:57:06;7.80;99.90
19292;DHT22;9779;51.756;7.450;2022-11-23T06:59:32;7.70;99.90
19292;DHT22;9779;51.756;7.450;2022-11-23T07:01:57;7.80;99.90
19292;DHT22;9779;51.756;7.450;2022-11-23T07:04:23;7.80;99.90
19292;DHT22;9779;51.756;7.450;2022-11-23T07:06:49;7.80;99.90
19292;DHT22;9779;51.756;7.450;2022-11-23T07:09:14;7.80;99.90
19292;DHT22;9779;51.756;7.450;2022-11-23T07:11:40;7.80;99.90
19292;DHT22;9779;51.756;7.450;2022-11-23T07:14:05;7.80;99.90
19292;DHT22;9779;51.756;7.450;2022-11-23T07:16:31;7.80;99.90
19292;DHT22;9779;51.756;7.450;2022-11-23T07:18:57;7.80;99.90
19292;DHT22;9779;51.756;7.450;2022-11-23T07:21:23;7.80;99.90
19292;DHT22;9779;51.756;7.450;2022-11-23T07:23:48;7.80;99.90
19292;DHT22;9779;51.756;7.450;2022-11-23T07:26:14;7.80;99.90
19292;DHT22;9779;51.756;7.450;2022-11-23T07:28:40;7.80;99.90
19292;DHT22;9779;51.756;7.450;2022-11-23T07:31:05;7.90;99.90
19292;DHT22;9779;51.756;7.450;2022-11-23T07:33:31;7.80;99.90
19292;DHT22;9779;51.756;7.450;2022-11-23T07:36:00;7.90;99.90
19292;DHT22;9779;51.756;7.450;2022-11-23T07:38:26;7.90;99.90
19292;DHT22;9779;51.756;7.450;2022-11-23T07:40:51;7.90;99.90
19292;DHT22;9779;51.756;7.450;2022-11-23T07:43:17;7.90;99.90
19292;DHT22;9779;51.756;7.450;2022-11-23T07:45:42;7.90;99.90
19292;DHT22;9779;51.756;7.450;2022-11-23T07:48:09;7.90;99.90
19292;DHT22;9779;51.756;7.450;2022-11-23T07:50:35;7.90;99.90
19292;DHT22;9779;51.756;7.450;2022-11-23T07:53:02;7.90;99.90
19292;DHT22;9779;51.756;7.450;2022-11-23T07:55:28;8.00;99.90
19292;DHT22;9779;51.756;7.450;2022-11-23T07:57:56;8.00;99.90
19292;DHT22;9779;51.756;7.450;2022-11-23T08:00:23;8.00;99.90
19292;DHT22;9779;51.756;7.450;2022-11-23T08:02:49;8.00;99.90
19292;DHT22;9779;51.756;7.450;2022-11-23T08:05:15;7.90;99.90
19292;DHT22;9779;51.756;7.450;2022-11-23T08:07:41;8.00;99.90
19292;DHT22;9779;51.756;7.450;2022-11-23T08:10:07;8.10;99.90
19292;DHT22;9779;51.756;7.450;2022-11-23T08:12:34;8.10;99.90
19292;DHT22;9779;51.756;7.450;2022-11-23T08:14:59;8.00;99.90
19292;DHT22;9779;51.756;7.450;2022-11-23T08:17:25;8.70;99.90
19292;DHT22;9779;51.756;7.450;2022-11-23T08:19:50;8.50;99.90
19292;DHT22;9779;51.756;7.450;2022-11-23T08:22:16;8.30;99.90
19292;DHT22;9779;51.756;7.450;2022-11-23T08:24:42;8.20;99.90
19292;DHT22;9779;51.756;7.450;2022-11-23T08:27:08;8.50;99.90
19292;DHT22;9779;51.756;7.450;2022-11-23T08:29:34;8.60;99.90
19292;DHT22;9779;51.756;7.450;2022-11-23T08:32:00;8.80;99.90
19292;DHT22;9779;51.756;7.450;2022-11-23T08:34:26;8.90;99.90
19292;DHT22;9779;51.756;7.450;2022-11-23T08:36:51;8.80;99.90
19292;DHT22;9779;51.756;7.450;2022-11-23T08:39:17;8.80;99.90
19292;DHT22;9779;51.756;7.450;2022-11-23T08:41:44;8.70;99.90
19292;DHT22;9779;51.756;7.450;2022-11-23T08:44:09;8.60;99.90
19292;DHT22;9779;51.756;7.450;2022-11-23T08:46:37;8.60;99.90
19292;DHT22;9779;51.756;7.450;2022-11-23T08:49:03;8.50;99.90
19292;DHT22;9779;51.756;7.450;2022-11-23T08:51:29;8.60;99.90
19292;DHT22;9779;51.756;7.450;2022-11-23T08:53:54;8.50;99.90
19292;DHT22;9779;51.756;7.450;2022-11-23T08:56:20;8.50;99.90
19292;DHT22;9779;51.756;7.450;2022-11-23T08:58:46;8.60;99.90
19292;DHT22;9779;51.756;7.450;2022-11-23T09:01:13;8.60;99.90
19292;DHT22;9779;51.756;7.450;2022-11-23T09:03:39;8.60;99.90
19292;DHT22;9779;51.756;7.450;2022-11-23T09:06:06;8.60;99.90
19292;DHT22;9779;51.756;7.450;2022-11-23T09:08:32;8.70;99.90
19292;DHT22;9779;51.756;7.450;2022-11-23T09:11:02;8.70;99.90
19292;DHT22;9779;51.756;7.450;2022-11-23T09:13:28;8.70;99.90
19292;DHT22;9779;51.756;7.450;2022-11-23T09:16:00;8.70;99.90
19292;DHT22;9779;51.756;7.450;2022-11-23T09:18:26;8.70;99.90
19292;DHT22;9779;51.756;7.450;2022-11-23T09:20:53;8.80;99.90
19292;DHT22;9779;51.756;7.450;2022-11-23T09:23:18;8.80;99.90
19292;DHT22;9779;51.756;7.450;2022-11-23T09:25:44;8.90;99.90
19292;DHT22;9779;51.756;7.450;2022-11-23T09:28:13;8.90;99.90
19292;DHT22;9779;51.756;7.450;2022-11-23T09:30:40;8.90;99.90
19292;DHT22;9779;51.756;7.450;2022-11-23T09:33:06;8.90;99.90
19292;DHT22;9779;51.756;7.450;2022-11-23T09:35:33;8.90;99.90
19292;DHT22;9779;51.756;7.450;2022-11-23T09:37:58;8.90;99.90
19292;DHT22;9779;51.756;7.450;2022-11-23T09:40:30;9.00;99.90
19292;DHT22;9779;51.756;7.450;2022-11-23T09:51:19;9.20;99.90
19292;DHT22;9779;51.756;7.450;2022-11-23T09:53:52;9.30;99.90
19292;DHT22;9779;51.756;7.450;2022-11-23T09:56:22;9.30;99.90
19292;DHT22;9779;51.756;7.450;2022-11-23T09:58:55;9.40;99.90
19292;DHT22;9779;51.756;7.450;2022-11-23T10:01:21;9.40;99.90
19292;DHT22;9779;51.756;7.450;2022-11-23T10:03:47;9.40;99.90
19292;DHT22;9779;51.756;7.450;2022-11-23T10:06:27;9.40;99.90
19292;DHT22;9779;51.756;7.450;2022-11-23T10:17:53;9.50;99.90
19292;DHT22;9779;51.756;7.450;2022-11-23T10:24:12;9.60;99.90
19292;DHT22;9779;51.756;7.450;2022-11-23T10:26:14;9.60;99.90
19292;DHT22;9779;51.756;7.450;2022-11-23T10:28:40;9.60;99.90
19292;DHT22;9779;51.756;7.450;2022-11-23T10:31:17;9.60;99.90
19292;DHT22;9779;51.756;7.450;2022-11-23T10:34:00;9.60;99.90
19292;DHT22;9779;51.756;7.450;2022-11-23T10:36:28;9.70;99.90
19292;DHT22;9779;51.756;7.450;2022-11-23T10:38:58;9.70;99.90
19292;DHT22;9779;51.756;7.450;2022-11-23T10:41:24;9.70;99.90
19292;DHT22;9779;51.756;7.450;2022-11-23T10:44:28;9.80;99.90
19292;DHT22;9779;51.756;7.450;2022-11-23T10:46:55;9.80;99.90
19292;DHT22;9779;51.756;7.450;2022-11-23T10:49:28;9.80;99.90
19292;DHT22;9779;51.756;7.450;2022-11-23T10:52:00;9.80;99.90
19292;DHT22;9779;51.756;7.450;2022-11-23T10:54:38;9.80;99.90
19292;DHT22;9779;51.756;7.450;2022-11-23T11:02:46;10.00;99.90
19292;DHT22;9779;51.756;7.450;2022-11-23T11:07:59;10.00;99.90
19292;DHT22;9779;51.756;7.450;2022-11-23T11:16:01;10.10;99.90
19292;DHT22;9779;51.756;7.450;2022-11-23T11:18:30;10.10;99.90
19292;DHT22;9779;51.756;7.450;2022-11-23T11:20:59;10.20;99.90
19292;DHT22;9779;51.756;7.450;2022-11-23T11:23:25;10.20;99.90
19292;DHT22;9779;51.756;7.450;2022-11-23T11:26:03;10.20;99.90
19292;DHT22;9779;51.756;7.450;2022-11-23T11:28:39;10.20;99.90
19292;DHT22;9779;51.756;7.450;2022-11-23T11:36:48;10.30;99.90
19292;DHT22;9779;51.756;7.450;2022-11-23T11:39:21;10.30;99.90
19292;DHT22;9779;51.756;7.450;2022-11-23T11:41:50;10.40;99.90
19292;DHT22;9779;51.756;7.450;2022-11-23T11:44:24;10.40;99.90
19292;DHT22;9779;51.756;7.450;2022-11-23T11:46:59;10.50;99.90
19292;DHT22;9779;51.756;7.450;2022-11-23T11:49:29;10.50;99.90
19292;DHT22;9779;51.756;7.450;2022-11-23T11:52:03;10.50;99.90
19292;DHT22;9779;51.756;7.450;2022-11-23T11:54:55;10.50;99.90
19292;DHT22;9779;51.756;7.450;2022-11-23T11:57:29;10.50;99.90
19292;DHT22;9779;51.756;7.450;2022-11-23T11:59:56;10.60;99.90
19292;DHT22;9779;51.756;7.450;2022-11-23T12:02:39;10.60;99.90
19292;DHT22;9779;51.756;7.450;2022-11-23T12:10:43;10.80;99.90
19292;DHT22;9779;51.756;7.450;2022-11-23T12:13:24;10.80;99.90
19292;DHT22;9779;51.756;7.450;2022-11-23T12:27:54;10.90;99.90
19292;DHT22;9779;51.756;7.450;2022-11-23T12:56:54;11.60;99.90
19292;DHT22;9779;51.756;7.450;2022-11-23T12:59:24;11.60;99.90
19292;DHT22;9779;51.756;7.450;2022-11-23T13:02:01;11.60;99.90
19292;DHT22;9779;51.756;7.450;2022-11-23T13:07:33;11.40;99.90
19292;DHT22;9779;51.756;7.450;2022-11-23T13:10:34;11.40;99.90
19292;DHT22;9779;51.756;7.450;2022-11-23T13:16:24;11.30;99.90
19292;DHT22;9779;51.756;7.450;2022-11-23T13:21:43;11.40;99.90
19292;DHT22;9779;51.756;7.450;2022-11-23T13:24:28;11.30;99.90
19292;DHT22;9779;51.756;7.450;2022-11-23T13:40:25;11.40;99.90
19292;DHT22;9779;51.756;7.450;2022-11-23T13:42:54;11.60;99.90
19292;DHT22;9779;51.756;7.450;2022-11-23T13:53:37;12.20;99.90
19292;DHT22;9779;51.756;7.450;2022-11-23T13:56:23;12.20;99.90
19292;DHT22;9779;51.756;7.450;2022-11-23T14:04:45;12.10;99.90
19292;DHT22;9779;51.756;7.450;2022-11-23T14:07:21;12.00;99.90
19292;DHT22;9779;51.756;7.450;2022-11-23T14:09:53;11.90;99.90
19292;DHT22;9779;51.756;7.450;2022-11-23T14:31:14;11.40;99.90
19292;DHT22;9779;51.756;7.450;2022-11-23T14:34:00;11.40;99.90
19292;DHT22;9779;51.756;7.450;2022-11-23T14:42:09;10.90;99.90
19292;DHT22;9779;51.756;7.450;2022-11-23T14:44:35;10.90;99.90
19292;DHT22;9779;51.756;7.450;2022-11-23T14:47:05;10.90;99.90
19292;DHT22;9779;51.756;7.450;2022-11-23T14:49:31;10.80;99.90
19292;DHT22;9779;51.756;7.450;2022-11-23T14:51:57;10.80;99.90
19292;DHT22;9779;51.756;7.450;2022-11-23T14:54:24;10.70;99.90
19292;DHT22;9779;51.756;7.450;2022-11-23T14:56:58;10.70;99.90
19292;DHT22;9779;51.756;7.450;2022-11-23T14:59:33;10.60;99.90
19292;DHT22;9779;51.756;7.450;2022-11-23T15:07:38;10.50;99.90
19292;DHT22;9779;51.756;7.450;2022-11-23T15:13:00;10.30;99.90
19292;DHT22;9779;51.756;7.450;2022-11-23T15:15:28;10.20;99.90
19292;DHT22;9779;51.756;7.450;2022-11-23T15:18:02;10.10;99.90
19292;DHT22;9779;51.756;7.450;2022-11-23T15:20:43;10.10;99.90
19292;DHT22;9779;51.756;7.450;2022-11-23T15:23:22;10.00;99.90
19292;DHT22;9779;51.756;7.450;2022-11-23T15:25:55;10.00;99.90
19292;DHT22;9779;51.756;7.450;2022-11-23T15:28:27;9.90;99.90
19292;DHT22;9779;51.756;7.450;2022-11-23T15:30:54;9.90;99.90
19292;DHT22;9779;51.756;7.450;2022-11-23T15:33:21;9.90;99.90
19292;DHT22;9779;51.756;7.450;2022-11-23T15:35:48;9.80;99.90
19292;DHT22;9779;51.756;7.450;2022-11-23T15:38:15;9.80;99.90
19292;DHT22;9779;51.756;7.450;2022-11-23T15:40:44;9.80;99.90
19292;DHT22;9779;51.756;7.450;2022-11-23T15:43:14;9.80;99.90
19292;DHT22;9779;51.756;7.450;2022-11-23T15:48:21;9.70;99.90
19292;DHT22;9779;51.756;7.450;2022-11-23T15:51:01;9.70;99.90
19292;DHT22;9779;51.756;7.450;2022-11-23T15:56:24;9.70;99.90
19292;DHT22;9779;51.756;7.450;2022-11-23T15:58:51;9.70;99.90
19292;DHT22;9779;51.756;7.450;2022-11-23T16:01:17;9.70;99.90
19292;DHT22;9779;51.756;7.450;2022-11-23T16:03:54;9.60;99.90
19292;DHT22;9779;51.756;7.450;2022-11-23T16:06:41;9.60;99.90
19292;DHT22;9779;51.756;7.450;2022-11-23T16:09:38;9.60;99.90
19292;DHT22;9779;51.756;7.450;2022-11-23T16:12:20;9.60;99.90
19292;DHT22;9779;51.756;7.450;2022-11-23T16:14:46;9.60;99.90
19292;DHT22;9779;51.756;7.450;2022-11-23T16:17:27;9.60;99.90
19292;DHT22;9779;51.756;7.450;2022-11-23T16:20:12;9.50;99.90
19292;DHT22;9779;51.756;7.450;2022-11-23T16:22:39;9.50;99.90
19292;DHT22;9779;51.756;7.450;2022-11-23T16:25:31;9.50;99.90
19292;DHT22;9779;51.756;7.450;2022-11-23T16:28:02;9.50;99.90
19292;DHT22;9779;51.756;7.450;2022-11-23T16:30:37;9.50;99.90
19292;DHT22;9779;51.756;7.450;2022-11-23T16:33:04;9.50;99.90
19292;DHT22;9779;51.756;7.450;2022-11-23T16:35:30;9.50;99.90
19292;DHT22;9779;51.756;7.450;2022-11-23T16:37:55;9.50;99.90
19292;DHT22;9779;51.756;7.450;2022-11-23T16:40:21;9.40;99.90
19292;DHT22;9779;51.756;7.450;2022-11-23T16:42:53;9.40;99.90
19292;DHT22;9779;51.756;7.450;2022-11-23T16:45:18;9.40;99.90
19292;DHT22;9779;51.756;7.450;2022-11-23T16:47:55;9.40;99.90
19292;DHT22;9779;51.756;7.450;2022-11-23T16:50:22;9.40;99.90
19292;DHT22;9779;51.756;7.450;2022-11-23T16:52:51;9.40;99.90
19292;DHT22;9779;51.756;7.450;2022-11-23T16:55:17;9.30;99.90
19292;DHT22;9779;51.756;7.450;2022-11-23T16:57:43;9.30;99.90
19292;DHT22;9779;51.756;7.450;2022-11-23T17:00:18;9.30;99.90
19292;DHT22;9779;51.756;7.450;2022-11-23T17:02:44;9.30;99.90
19292;DHT22;9779;51.756;7.450;2022-11-23T17:05:18;9.30;99.90
19292;DHT22;9779;51.756;7.450;2022-11-23T17:07:44;9.30;99.90
19292;DHT22;9779;51.756;7.450;2022-11-23T17:10:11;9.20;99.90
19292;DHT22;9779;51.756;7.450;2022-11-23T17:12:37;9.20;99.90
19292;DHT22;9779;51.756;7.450;2022-11-23T17:15:04;9.20;99.90
19292;DHT22;9779;51.756;7.450;2022-11-23T17:17:31;9.20;99.90
19292;DHT22;9779;51.756;7.450;2022-11-23T17:19:56;9.20;99.90
19292;DHT22;9779;51.756;7.450;2022-11-23T17:22:22;9.10;99.90
19292;DHT22;9779;51.756;7.450;2022-11-23T17:24:48;9.20;99.90
19292;DHT22;9779;51.756;7.450;2022-11-23T17:27:21;9.10;99.90
19292;DHT22;9779;51.756;7.450;2022-11-23T17:29:58;9.20;99.90
19292;DHT22;9779;51.756;7.450;2022-11-23T17:32:24;9.10;99.90
19292;DHT22;9779;51.756;7.450;2022-11-23T17:34:50;9.20;99.90
19292;DHT22;9779;51.756;7.450;2022-11-23T17:37:25;9.10;99.90
19292;DHT22;9779;51.756;7.450;2022-11-23T17:39:50;9.10;99.90
19292;DHT22;9779;51.756;7.450;2022-11-23T17:42:16;9.10;99.90
19292;DHT22;9779;51.756;7.450;2022-11-23T17:44:42;9.10;99.90
19292;DHT22;9779;51.756;7.450;2022-11-23T17:47:24;9.00;99.90
19292;DHT22;9779;51.756;7.450;2022-11-23T17:49:50;9.00;99.90
19292;DHT22;9779;51.756;7.450;2022-11-23T17:52:15;9.00;99.90
19292;DHT22;9779;51.756;7.450;2022-11-23T17:54:41;9.00;99.90
19292;DHT22;9779;51.756;7.450;2022-11-23T17:57:12;9.00;99.90
19292;DHT22;9779;51.756;7.450;2022-11-23T17:59:39;9.00;99.90
19292;DHT22;9779;51.756;7.450;2022-11-23T18:02:05;8.90;99.90
19292;DHT22;9779;51.756;7.450;2022-11-23T18:04:30;8.80;99.90
19292;DHT22;9779;51.756;7.450;2022-11-23T18:06:56;8.80;99.90
19292;DHT22;9779;51.756;7.450;2022-11-23T18:09:21;8.80;99.90
19292;DHT22;9779;51.756;7.450;2022-11-23T18:11:47;8.80;99.90
19292;DHT22;9779;51.756;7.450;2022-11-23T18:14:13;8.70;99.90
19292;DHT22;9779;51.756;7.450;2022-11-23T18:16:38;8.70;99.90
19292;DHT22;9779;51.756;7.450;2022-11-23T18:19:04;8.70;99.90
19292;DHT22;9779;51.756;7.450;2022-11-23T18:21:30;8.60;99.90
19292;DHT22;9779;51.756;7.450;2022-11-23T18:23:56;8.60;99.90
19292;DHT22;9779;51.756;7.450;2022-11-23T18:26:23;8.50;99.90
19292;DHT22;9779;51.756;7.450;2022-11-23T18:28:54;8.50;99.90
19292;DHT22;9779;51.756;7.450;2022-11-23T18:31:20;8.50;99.90
19292;DHT22;9779;51.756;7.450;2022-11-23T18:33:45;8.50;99.90
19292;DHT22;9779;51.756;7.450;2022-11-23T18:36:11;8.50;99.90
19292;DHT22;9779;51.756;7.450;2022-11-23T18:38:38;8.40;99.90
19292;DHT22;9779;51.756;7.450;2022-11-23T18:41:04;8.40;99.90
19292;DHT22;9779;51.756;7.450;2022-11-23T18:43:30;8.40;99.90
19292;DHT22;9779;51.756;7.450;2022-11-23T18:45:56;8.40;99.90
19292;DHT22;9779;51.756;7.450;2022-11-23T18:48:22;8.40;99.90
19292;DHT22;9779;51.756;7.450;2022-11-23T18:50:48;8.40;99.90